sensor_id;sensor_type;location;lat;lon;timestamp;pressure;altitude;pressure_sealevel;temperature;humidity
63281;BME280;49406;51.044;3.766;2023-07-24T00:00:49;100543.27;;;18.54;100.00
63281;BME280;49406;51.044;3.766;2023-07-24T00:03:23;100538.48;;;18.55;100.00
63281;BME280;49406;51.044;3.766;2023-07-24T00:06:01;100533.30;;;18.56;100.00
63281;BME280;49406;51.044;3.766;2023-07-24T00:08:34;100520.92;;;18.56;100.00
63281;BME280;49406;51.044;3.766;2023-07-24T00:11:09;100513.97;;;18.57;100.00
63281;BME280;49406;51.044;3.766;2023-07-24T00:13:44;100515.53;;;18.58;100.00
63281;BME280;49406;51.044;3.766;2023-07-24T00:16:19;100514.20;;;18.56;100.00
63281;BME280;49406;51.044;3.766;2023-07-24T00:18:53;100509.70;;;18.53;100.00
63281;BME280;49406;51.044;3.766;2023-07-24T00:21:28;100516.02;;;18.54;100.00
63281;BME280;49406;51.044;3.766;2023-07-24T00:24:04;100512.17;;;18.53;100.00
63281;BME280;49406;51.044;3.766;2023-07-24T00:26:39;100506.77;;;18.50;100.00
63281;BME280;49406;51.044;3.766;2023-07-24T00:29:13;100510.13;;;18.50;100.00
63281;BME280;49406;51.044;3.766;2023-07-24T00:31:48;100514.29;;;18.53;100.00
63281;BME280;49406;51.044;3.766;2023-07-24T00:34:22;100508.64;;;18.53;100.00
63281;BME280;49406;51.044;3.766;2023-07-24T00:36:57;100507.27;;;18.51;100.00
63281;BME280;49406;51.044;3.766;2023-07-24T00:39:31;100501.66;;;18.50;100.00
63281;BME280;49406;51.044;3.766;2023-07-24T00:42:07;100504.32;;;18.49;100.00
63281;BME280;49406;51.044;3.766;2023-07-24T00:44:42;100506.69;;;18.46;100.00
63281;BME280;49406;51.044;3.766;2023-07-24T00:47:16;100499.77;;;18.47;100.00
63281;BME280;49406;51.044;3.766;2023-07-24T00:49:51;100497.83;;;18.47;100.00
63281;BME280;49406;51.044;3.766;2023-07-24T00:52:27;100498.98;;;18.44;100.00
63281;BME280;49406;51.044;3.766;2023-07-24T00:55:02;100493.69;;;18.43;100.00
63281;BME280;49406;51.044;3.766;2023-07-24T00:57:37;100501.77;;;18.45;100.00
63281;BME280;49406;51.044;3.766;2023-07-24T01:00:13;100506.30;;;18.47;100.00
63281;BME280;49406;51.044;3.766;2023-07-24T01:02:49;100509.38;;;18.45;100.00
63281;BME280;49406;51.044;3.766;2023-07-24T01:05:26;100517.70;;;18.44;100.00
63281;BME280;49406;51.044;3.766;2023-07-24T01:08:00;100516.74;;;18.42;100.00
63281;BME280;49406;51.044;3.766;2023-07-24T01:10:35;100512.37;;;18.40;100.00
63281;BME280;49406;51.044;3.766;2023-07-24T01:13:18;100506.56;;;18.39;100.00
63281;BME280;49406;51.044;3.766;2023-07-24T01:15:59;100499.05;;;18.36;100.00
63281;BME280;49406;51.044;3.766;2023-07-24T01:18:36;100495.73;;;18.34;100.00
63281;BME280;49406;51.044;3.766;2023-07-24T01:21:13;100497.12;;;18.28;100.00
63281;BME280;49406;51.044;3.766;2023-07-24T01:23:58;100491.02;;;18.25;100.00
63281;BME280;49406;51.044;3.766;2023-07-24T01:26:33;100485.31;;;18.15;100.00
63281;BME280;49406;51.044;3.766;2023-07-24T01:29:08;100483.17;;;18.09;100.00
63281;BME280;49406;51.044;3.766;2023-07-24T01:31:43;100482.95;;;18.05;100.00
63281;BME280;49406;51.044;3.766;2023-07-24T01:34:17;100478.63;;;18.01;100.00
63281;BME280;49406;51.044;3.766;2023-07-24T01:36:52;100474.45;;;17.99;100.00
63281;BME280;49406;51.044;3.766;2023-07-24T01:39:27;100472.66;;;17.93;100.00
63281;BME280;49406;51.044;3.766;2023-07-24T01:42:03;100466.90;;;17.85;100.00
63281;BME280;49406;51.044;3.766;2023-07-24T01:44:38;100466.66;;;17.81;100.00
63281;BME280;49406;51.044;3.766;2023-07-24T01:47:13;100463.17;;;17.78;100.00
63281;BME280;49406;51.044;3.766;2023-07-24T01:49:48;100459.35;;;17.76;100.00
63281;BME280;49406;51.044;3.766;2023-07-24T01:52:22;100460.09;;;17.74;100.00
63281;BME280;49406;51.044;3.766;2023-07-24T01:54:57;100455.70;;;17.73;100.00
63281;BME280;49406;51.044;3.766;2023-07-24T01:57:31;100460.30;;;17.73;100.00
63281;BME280;49406;51.044;3.766;2023-07-24T02:00:07;100458.80;;;17.69;100.00
63281;BME280;49406;51.044;3.766;2023-07-24T02:02:42;100457.84;;;17.72;100.00
63281;BME280;49406;51.044;3.766;2023-07-24T02:05:17;100455.39;;;17.72;100.00
63281;BME280;49406;51.044;3.766;2023-07-24T02:07:52;100450.98;;;17.71;100.00
63281;BME280;49406;51.044;3.766;2023-07-24T02:10:26;100445.52;;;17.71;100.00
63281;BME280;49406;51.044;3.766;2023-07-24T02:13:01;100447.06;;;17.72;100.00
63281;BME280;49406;51.044;3.766;2023-07-24T02:15:35;100443.95;;;17.70;100.00
63281;BME280;49406;51.044;3.766;2023-07-24T02:18:10;100436.42;;;17.74;100.00
63281;BME280;49406;51.044;3.766;2023-07-24T02:20:50;100426.33;;;17.74;100.00
63281;BME280;49406;51.044;3.766;2023-07-24T02:23:25;100426.67;;;17.74;100.00
63281;BME280;49406;51.044;3.766;2023-07-24T02:26:00;100424.56;;;17.74;100.00
63281;BME280;49406;51.044;3.766;2023-07-24T02:28:34;100445.20;;;17.76;100.00
63281;BME280;49406;51.044;3.766;2023-07-24T02:31:09;100441.55;;;17.73;100.00
63281;BME280;49406;51.044;3.766;2023-07-24T02:33:43;100445.02;;;17.70;100.00
63281;BME280;49406;51.044;3.766;2023-07-24T02:36:18;100453.23;;;17.66;100.00
63281;BME280;49406;51.044;3.766;2023-07-24T02:38:53;100454.24;;;17.61;100.00
63281;BME280;49406;51.044;3.766;2023-07-24T02:41:27;100465.11;;;17.51;100.00
63281;BME280;49406;51.044;3.766;2023-07-24T02:44:03;100473.16;;;17.40;100.00
63281;BME280;49406;51.044;3.766;2023-07-24T02:46:38;100474.52;;;17.36;100.00
63281;BME280;49406;51.044;3.766;2023-07-24T02:49:12;100472.66;;;17.33;100.00
63281;BME280;49406;51.044;3.766;2023-07-24T02:51:47;100463.65;;;17.25;100.00
63281;BME280;49406;51.044;3.766;2023-07-24T02:54:23;100464.71;;;17.19;100.00
63281;BME280;49406;51.044;3.766;2023-07-24T02:56:59;100457.02;;;17.08;100.00
63281;BME280;49406;51.044;3.766;2023-07-24T02:59:34;100452.04;;;16.95;100.00
63281;BME280;49406;51.044;3.766;2023-07-24T03:02:09;100454.48;;;16.89;100.00
63281;BME280;49406;51.044;3.766;2023-07-24T03:04:43;100460.44;;;16.84;100.00
63281;BME280;49406;51.044;3.766;2023-07-24T03:07:18;100455.77;;;16.80;100.00
63281;BME280;49406;51.044;3.766;2023-07-24T03:09:53;100457.44;;;16.76;100.00
63281;BME280;49406;51.044;3.766;2023-07-24T03:12:27;100455.91;;;16.73;100.00
63281;BME280;49406;51.044;3.766;2023-07-24T03:15:02;100460.02;;;16.72;100.00
63281;BME280;49406;51.044;3.766;2023-07-24T03:17:37;100459.17;;;16.70;100.00
63281;BME280;49406;51.044;3.766;2023-07-24T03:20:16;100456.88;;;16.70;100.00
63281;BME280;49406;51.044;3.766;2023-07-24T03:22:51;100458.31;;;16.69;100.00
63281;BME280;49406;51.044;3.766;2023-07-24T03:25:26;100452.11;;;16.70;100.00
63281;BME280;49406;51.044;3.766;2023-07-24T03:28:01;100449.49;;;16.69;100.00
63281;BME280;49406;51.044;3.766;2023-07-24T03:30:36;100441.72;;;16.69;100.00
63281;BME280;49406;51.044;3.766;2023-07-24T03:33:10;100439.04;;;16.71;100.00
63281;BME280;49406;51.044;3.766;2023-07-24T03:35:46;100438.73;;;16.69;100.00
63281;BME280;49406;51.044;3.766;2023-07-24T03:38:20;100446.17;;;16.68;100.00
63281;BME280;49406;51.044;3.766;2023-07-24T03:40:55;100441.23;;;16.67;100.00
63281;BME280;49406;51.044;3.766;2023-07-24T03:43:29;100436.61;;;16.68;100.00
63281;BME280;49406;51.044;3.766;2023-07-24T03:46:04;100435.86;;;16.71;100.00
63281;BME280;49406;51.044;3.766;2023-07-24T03:48:38;100429.94;;;16.67;100.00
63281;BME280;49406;51.044;3.766;2023-07-24T03:51:13;100427.77;;;16.69;100.00
63281;BME280;49406;51.044;3.766;2023-07-24T03:53:48;100427.64;;;16.67;100.00
63281;BME280;49406;51.044;3.766;2023-07-24T03:56:22;100422.59;;;16.72;100.00
63281;BME280;49406;51.044;3.766;2023-07-24T03:58:57;100415.90;;;16.71;100.00
63281;BME280;49406;51.044;3.766;2023-07-24T04:01:31;100425.36;;;16.67;100.00
63281;BME280;49406;51.044;3.766;2023-07-24T04:04:06;100428.83;;;16.60;100.00
63281;BME280;49406;51.044;3.766;2023-07-24T04:06:41;100429.44;;;16.56;100.00
63281;BME280;49406;51.044;3.766;2023-07-24T04:09:15;100433.41;;;16.53;100.00
63281;BME280;49406;51.044;3.766;2023-07-24T04:11:50;100440.05;;;16.55;100.00
63281;BME280;49406;51.044;3.766;2023-07-24T04:14:24;100441.23;;;16.50;100.00
63281;BME280;49406;51.044;3.766;2023-07-24T04:16:59;100441.67;;;16.46;100.00
63281;BME280;49406;51.044;3.766;2023-07-24T04:19:34;100441.86;;;16.46;100.00
63281;BME280;49406;51.044;3.766;2023-07-24T04:22:08;100442.01;;;16.48;100.00
63281;BME280;49406;51.044;3.766;2023-07-24T04:24:43;100443.75;;;16.48;100.00
63281;BME280;49406;51.044;3.766;2023-07-24T04:27:17;100444.05;;;16.51;100.00
63281;BME280;49406;51.044;3.766;2023-07-24T04:29:52;100440.08;;;16.54;100.00
63281;BME280;49406;51.044;3.766;2023-07-24T04:32:28;100438.77;;;16.58;100.00
63281;BME280;49406;51.044;3.766;2023-07-24T04:35:03;100440.30;;;16.60;100.00
63281;BME280;49406;51.044;3.766;2023-07-24T04:37:38;100438.61;;;16.66;100.00
63281;BME280;49406;51.044;3.766;2023-07-24T04:40:13;100432.60;;;16.67;100.00
63281;BME280;49406;51.044;3.766;2023-07-24T04:42:48;100435.39;;;16.69;100.00
63281;BME280;49406;51.044;3.766;2023-07-24T04:45:22;100442.68;;;16.73;100.00
63281;BME280;49406;51.044;3.766;2023-07-24T04:47:57;100438.05;;;16.75;100.00
63281;BME280;49406;51.044;3.766;2023-07-24T04:50:32;100441.87;;;16.77;100.00
63281;BME280;49406;51.044;3.766;2023-07-24T04:53:06;100442.14;;;16.81;100.00
63281;BME280;49406;51.044;3.766;2023-07-24T04:55:41;100443.83;;;16.85;100.00
63281;BME280;49406;51.044;3.766;2023-07-24T04:58:16;100440.29;;;16.85;100.00
63281;BME280;49406;51.044;3.766;2023-07-24T05:00:50;100441.13;;;16.87;100.00
63281;BME280;49406;51.044;3.766;2023-07-24T05:03:25;100440.83;;;16.92;100.00
63281;BME280;49406;51.044;3.766;2023-07-24T05:05:59;100439.50;;;16.95;100.00
63281;BME280;49406;51.044;3.766;2023-07-24T05:08:34;100443.84;;;16.99;100.00
63281;BME280;49406;51.044;3.766;2023-07-24T05:11:08;100446.67;;;17.05;100.00
63281;BME280;49406;51.044;3.766;2023-07-24T05:13:43;100445.63;;;17.12;100.00
63281;BME280;49406;51.044;3.766;2023-07-24T05:16:17;100444.23;;;17.18;100.00
63281;BME280;49406;51.044;3.766;2023-07-24T05:18:52;100442.20;;;17.22;100.00
63281;BME280;49406;51.044;3.766;2023-07-24T05:21:26;100452.48;;;17.27;100.00
63281;BME280;49406;51.044;3.766;2023-07-24T05:24:01;100455.91;;;17.31;100.00
63281;BME280;49406;51.044;3.766;2023-07-24T05:26:36;100452.51;;;17.33;100.00
63281;BME280;49406;51.044;3.766;2023-07-24T05:29:10;100447.73;;;17.33;100.00
63281;BME280;49406;51.044;3.766;2023-07-24T05:31:45;100444.23;;;17.38;100.00
63281;BME280;49406;51.044;3.766;2023-07-24T05:34:20;100447.91;;;17.53;100.00
63281;BME280;49406;51.044;3.766;2023-07-24T05:36:54;100452.36;;;17.59;100.00
63281;BME280;49406;51.044;3.766;2023-07-24T05:42:08;100450.63;;;17.72;100.00
63281;BME280;49406;51.044;3.766;2023-07-24T05:44:43;100449.87;;;17.73;100.00
63281;BME280;49406;51.044;3.766;2023-07-24T05:47:18;100445.69;;;17.84;100.00
63281;BME280;49406;51.044;3.766;2023-07-24T05:49:52;100443.96;;;18.01;100.00
63281;BME280;49406;51.044;3.766;2023-07-24T05:52:28;100446.58;;;18.33;100.00
63281;BME280;49406;51.044;3.766;2023-07-24T06:01:40;100448.03;;;18.89;100.00
63281;BME280;49406;51.044;3.766;2023-07-24T06:04:14;100458.03;;;18.86;100.00
63281;BME280;49406;51.044;3.766;2023-07-24T06:06:49;100461.11;;;18.79;100.00
63281;BME280;49406;51.044;3.766;2023-07-24T06:09:23;100458.73;;;18.70;100.00
63281;BME280;49406;51.044;3.766;2023-07-24T06:11:58;100455.19;;;18.71;100.00
63281;BME280;49406;51.044;3.766;2023-07-24T06:14:33;100455.50;;;18.77;100.00
63281;BME280;49406;51.044;3.766;2023-07-24T06:17:08;100459.20;;;18.77;100.00
63281;BME280;49406;51.044;3.766;2023-07-24T06:19:42;100463.54;;;18.70;100.00
63281;BME280;49406;51.044;3.766;2023-07-24T06:22:17;100462.44;;;18.64;100.00
63281;BME280;49406;51.044;3.766;2023-07-24T06:24:51;100465.29;;;18.63;100.00
63281;BME280;49406;51.044;3.766;2023-07-24T06:27:26;100468.19;;;18.62;100.00
63281;BME280;49406;51.044;3.766;2023-07-24T06:30:00;100465.98;;;18.71;100.00
63281;BME280;49406;51.044;3.766;2023-07-24T06:32:35;100463.32;;;18.71;100.00
63281;BME280;49406;51.044;3.766;2023-07-24T06:35:10;100466.58;;;18.68;100.00
63281;BME280;49406;51.044;3.766;2023-07-24T06:37:45;100466.64;;;18.72;100.00
63281;BME280;49406;51.044;3.766;2023-07-24T06:40:19;100477.16;;;18.81;100.00
63281;BME280;49406;51.044;3.766;2023-07-24T06:42:54;100479.51;;;18.79;100.00
63281;BME280;49406;51.044;3.766;2023-07-24T06:45:29;100476.15;;;18.79;100.00
63281;BME280;49406;51.044;3.766;2023-07-24T06:48:01;100469.77;;;18.69;100.00
63281;BME280;49406;51.044;3.766;2023-07-24T06:50:36;100472.78;;;18.61;100.00
63281;BME280;49406;51.044;3.766;2023-07-24T06:53:11;100469.94;;;18.56;100.00
63281;BME280;49406;51.044;3.766;2023-07-24T06:55:45;100469.03;;;18.51;100.00
63281;BME280;49406;51.044;3.766;2023-07-24T06:58:20;100470.33;;;18.43;100.00
63281;BME280;49406;51.044;3.766;2023-07-24T07:00:55;100468.22;;;18.24;100.00
63281;BME280;49406;51.044;3.766;2023-07-24T07:03:30;100465.02;;;18.13;100.00
63281;BME280;49406;51.044;3.766;2023-07-24T07:06:04;100460.31;;;18.04;100.00
63281;BME280;49406;51.044;3.766;2023-07-24T07:08:40;100460.04;;;18.02;100.00
63281;BME280;49406;51.044;3.766;2023-07-24T07:11:14;100457.89;;;17.96;100.00
63281;BME280;49406;51.044;3.766;2023-07-24T07:13:49;100456.13;;;17.90;100.00
63281;BME280;49406;51.044;3.766;2023-07-24T07:16:23;100454.77;;;17.89;100.00
63281;BME280;49406;51.044;3.766;2023-07-24T07:18:58;100454.02;;;17.90;100.00
63281;BME280;49406;51.044;3.766;2023-07-24T07:21:33;100451.20;;;17.90;100.00
63281;BME280;49406;51.044;3.766;2023-07-24T07:24:08;100446.67;;;17.93;100.00
63281;BME280;49406;51.044;3.766;2023-07-24T07:26:42;100451.84;;;17.98;100.00
63281;BME280;49406;51.044;3.766;2023-07-24T07:29:18;100457.60;;;18.07;100.00
63281;BME280;49406;51.044;3.766;2023-07-24T07:31:52;100449.29;;;18.18;100.00
63281;BME280;49406;51.044;3.766;2023-07-24T07:34:27;100450.98;;;18.39;100.00
63281;BME280;49406;51.044;3.766;2023-07-24T07:37:01;100453.27;;;18.57;100.00
63281;BME280;49406;51.044;3.766;2023-07-24T07:39:36;100449.50;;;18.71;100.00
63281;BME280;49406;51.044;3.766;2023-07-24T07:42:10;100452.06;;;18.80;100.00
63281;BME280;49406;51.044;3.766;2023-07-24T07:44:45;100438.36;;;18.92;100.00
63281;BME280;49406;51.044;3.766;2023-07-24T07:47:20;100440.35;;;19.02;100.00
63281;BME280;49406;51.044;3.766;2023-07-24T07:49:54;100442.74;;;19.21;100.00
63281;BME280;49406;51.044;3.766;2023-07-24T07:52:29;100445.59;;;19.35;100.00
63281;BME280;49406;51.044;3.766;2023-07-24T07:55:04;100445.94;;;19.46;100.00
63281;BME280;49406;51.044;3.766;2023-07-24T07:57:40;100446.48;;;19.62;100.00
63281;BME280;49406;51.044;3.766;2023-07-24T08:00:15;100447.80;;;19.70;100.00
63281;BME280;49406;51.044;3.766;2023-07-24T08:02:50;100448.29;;;19.76;100.00
63281;BME280;49406;51.044;3.766;2023-07-24T08:05:25;100453.35;;;19.83;100.00
63281;BME280;49406;51.044;3.766;2023-07-24T08:08:00;100459.73;;;19.83;100.00
63281;BME280;49406;51.044;3.766;2023-07-24T08:10:36;100460.36;;;19.90;100.00
63281;BME280;49406;51.044;3.766;2023-07-24T08:13:11;100451.80;;;19.96;100.00
63281;BME280;49406;51.044;3.766;2023-07-24T08:15:45;100450.39;;;20.05;100.00
63281;BME280;49406;51.044;3.766;2023-07-24T08:18:20;100450.64;;;20.08;100.00
63281;BME280;49406;51.044;3.766;2023-07-24T08:20:55;100445.70;;;20.12;100.00
63281;BME280;49406;51.044;3.766;2023-07-24T08:23:29;100447.15;;;20.26;100.00
63281;BME280;49406;51.044;3.766;2023-07-24T08:26:04;100444.44;;;20.41;100.00
63281;BME280;49406;51.044;3.766;2023-07-24T08:28:39;100442.37;;;20.54;100.00
63281;BME280;49406;51.044;3.766;2023-07-24T08:31:15;100434.23;;;20.53;100.00
63281;BME280;49406;51.044;3.766;2023-07-24T08:33:50;100435.77;;;20.72;100.00
63281;BME280;49406;51.044;3.766;2023-07-24T08:36:25;100431.87;;;20.93;100.00
63281;BME280;49406;51.044;3.766;2023-07-24T08:38:59;100435.13;;;21.10;100.00
63281;BME280;49406;51.044;3.766;2023-07-24T08:41:34;100430.34;;;21.22;100.00
63281;BME280;49406;51.044;3.766;2023-07-24T08:50:53;100411.26;;;21.80;100.00
63281;BME280;49406;51.044;3.766;2023-07-24T08:53:28;100409.14;;;21.80;100.00
63281;BME280;49406;51.044;3.766;2023-07-24T08:56:03;100403.29;;;22.07;100.00
63281;BME280;49406;51.044;3.766;2023-07-24T08:58:38;100394.57;;;22.56;100.00
63281;BME280;49406;51.044;3.766;2023-07-24T09:01:13;100401.94;;;22.88;100.00
63281;BME280;49406;51.044;3.766;2023-07-24T09:03:48;100403.42;;;22.87;100.00
63281;BME280;49406;51.044;3.766;2023-07-24T09:06:22;100401.19;;;22.74;100.00
63281;BME280;49406;51.044;3.766;2023-07-24T09:08:57;100401.91;;;22.74;100.00
63281;BME280;49406;51.044;3.766;2023-07-24T09:11:31;100391.89;;;22.71;100.00
63281;BME280;49406;51.044;3.766;2023-07-24T09:14:06;100379.32;;;22.69;100.00
63281;BME280;49406;51.044;3.766;2023-07-24T09:16:40;100379.23;;;22.67;100.00
63281;BME280;49406;51.044;3.766;2023-07-24T09:19:19;100374.92;;;23.11;100.00
63281;BME280;49406;51.044;3.766;2023-07-24T09:21:54;100365.55;;;23.27;98.74
63281;BME280;49406;51.044;3.766;2023-07-24T09:24:28;100370.86;;;23.14;95.90
63281;BME280;49406;51.044;3.766;2023-07-24T09:27:06;100376.88;;;23.19;96.50
63281;BME280;49406;51.044;3.766;2023-07-24T09:29:41;100378.13;;;23.25;96.21
63281;BME280;49406;51.044;3.766;2023-07-24T09:32:21;100379.56;;;23.22;89.50
63281;BME280;49406;51.044;3.766;2023-07-24T09:34:56;100379.23;;;23.22;93.69
63281;BME280;49406;51.044;3.766;2023-07-24T09:37:33;100383.40;;;23.27;88.79
63281;BME280;49406;51.044;3.766;2023-07-24T09:40:11;100390.20;;;23.36;90.41
63281;BME280;49406;51.044;3.766;2023-07-24T09:42:46;100384.95;;;23.41;90.72
63281;BME280;49406;51.044;3.766;2023-07-24T09:45:20;100385.95;;;23.53;90.19
63281;BME280;49406;51.044;3.766;2023-07-24T09:47:55;100388.34;;;23.59;86.78
63281;BME280;49406;51.044;3.766;2023-07-24T09:50:33;100392.09;;;23.52;82.82
63281;BME280;49406;51.044;3.766;2023-07-24T09:53:06;100400.52;;;23.47;83.70
63281;BME280;49406;51.044;3.766;2023-07-24T09:55:49;100400.73;;;23.50;79.91
63281;BME280;49406;51.044;3.766;2023-07-24T09:58:26;100406.15;;;23.46;82.85
63281;BME280;49406;51.044;3.766;2023-07-24T10:01:01;100408.08;;;23.56;85.90
63281;BME280;49406;51.044;3.766;2023-07-24T10:03:38;100408.50;;;23.69;83.48
63281;BME280;49406;51.044;3.766;2023-07-24T10:06:13;100417.73;;;23.60;80.25
63281;BME280;49406;51.044;3.766;2023-07-24T10:08:49;100421.66;;;23.63;78.74
63281;BME280;49406;51.044;3.766;2023-07-24T10:11:26;100419.73;;;23.41;76.13
63281;BME280;49406;51.044;3.766;2023-07-24T10:14:02;100421.04;;;23.30;76.28
63281;BME280;49406;51.044;3.766;2023-07-24T10:16:36;100431.48;;;23.31;77.59
63281;BME280;49406;51.044;3.766;2023-07-24T10:19:15;100432.94;;;23.45;78.76
63281;BME280;49406;51.044;3.766;2023-07-24T10:21:50;100428.27;;;23.56;76.84
63281;BME280;49406;51.044;3.766;2023-07-24T10:24:31;100432.53;;;23.67;80.41
63281;BME280;49406;51.044;3.766;2023-07-24T10:27:08;100438.21;;;23.84;77.49
63281;BME280;49406;51.044;3.766;2023-07-24T10:29:42;100433.06;;;23.87;77.96
63281;BME280;49406;51.044;3.766;2023-07-24T10:32:20;100432.50;;;23.91;74.26
63281;BME280;49406;51.044;3.766;2023-07-24T10:35:06;100433.02;;;24.08;75.80
63281;BME280;49406;51.044;3.766;2023-07-24T10:37:42;100432.14;;;24.24;74.69
63281;BME280;49406;51.044;3.766;2023-07-24T10:40:22;100434.77;;;24.21;73.96
63281;BME280;49406;51.044;3.766;2023-07-24T10:43:06;100433.84;;;24.02;71.11
63281;BME280;49406;51.044;3.766;2023-07-24T10:45:48;100432.71;;;23.97;74.01
63281;BME280;49406;51.044;3.766;2023-07-24T10:48:26;100436.95;;;24.14;75.97
63281;BME280;49406;51.044;3.766;2023-07-24T10:51:07;100432.09;;;24.31;76.62
63281;BME280;49406;51.044;3.766;2023-07-24T10:53:44;100430.84;;;24.73;74.28
63281;BME280;49406;51.044;3.766;2023-07-24T10:56:19;100431.85;;;24.77;69.67
63281;BME280;49406;51.044;3.766;2023-07-24T10:58:54;100440.70;;;24.63;70.21
63281;BME280;49406;51.044;3.766;2023-07-24T11:01:28;100443.74;;;24.47;69.37
63281;BME280;49406;51.044;3.766;2023-07-24T11:04:04;100442.29;;;24.35;71.96
63281;BME280;49406;51.044;3.766;2023-07-24T11:06:38;100446.91;;;24.39;71.30
63281;BME280;49406;51.044;3.766;2023-07-24T11:09:14;100445.36;;;24.31;71.24
63281;BME280;49406;51.044;3.766;2023-07-24T11:11:48;100441.58;;;24.24;72.93
63281;BME280;49406;51.044;3.766;2023-07-24T11:14:25;100446.45;;;24.26;72.50
63281;BME280;49406;51.044;3.766;2023-07-24T11:17:00;100444.98;;;24.50;73.20
63281;BME280;49406;51.044;3.766;2023-07-24T11:19:34;100446.65;;;24.68;69.52
63281;BME280;49406;51.044;3.766;2023-07-24T11:22:09;100442.84;;;24.60;71.25
63281;BME280;49406;51.044;3.766;2023-07-24T11:24:47;100440.08;;;24.61;71.08
63281;BME280;49406;51.044;3.766;2023-07-24T11:27:22;100435.31;;;24.79;70.85
63281;BME280;49406;51.044;3.766;2023-07-24T11:29:56;100437.15;;;25.07;69.59
63281;BME280;49406;51.044;3.766;2023-07-24T11:32:31;100443.05;;;24.84;68.09
63281;BME280;49406;51.044;3.766;2023-07-24T11:35:04;100441.59;;;24.88;70.86
63281;BME280;49406;51.044;3.766;2023-07-24T11:37:39;100437.02;;;24.97;70.35
63281;BME280;49406;51.044;3.766;2023-07-24T11:40:14;100449.95;;;24.76;69.94
63281;BME280;49406;51.044;3.766;2023-07-24T11:42:49;100457.03;;;24.49;69.99
63281;BME280;49406;51.044;3.766;2023-07-24T11:45:24;100452.59;;;24.16;71.39
63281;BME280;49406;51.044;3.766;2023-07-24T11:47:58;100448.78;;;24.04;72.84
63281;BME280;49406;51.044;3.766;2023-07-24T11:50:43;100448.38;;;24.04;73.22
63281;BME280;49406;51.044;3.766;2023-07-24T11:53:22;100443.62;;;23.97;73.53
63281;BME280;49406;51.044;3.766;2023-07-24T11:55:58;100444.19;;;24.19;72.76
63281;BME280;49406;51.044;3.766;2023-07-24T11:58:34;100445.55;;;24.30;70.38
63281;BME280;49406;51.044;3.766;2023-07-24T12:01:08;100453.21;;;24.44;70.97
63281;BME280;49406;51.044;3.766;2023-07-24T12:03:43;100455.02;;;24.59;71.72
63281;BME280;49406;51.044;3.766;2023-07-24T12:06:18;100453.32;;;24.67;72.26
63281;BME280;49406;51.044;3.766;2023-07-24T12:09:00;100451.73;;;24.57;71.06
63281;BME280;49406;51.044;3.766;2023-07-24T12:11:40;100450.23;;;24.26;71.99
63281;BME280;49406;51.044;3.766;2023-07-24T12:14:15;100453.55;;;23.98;72.85
63281;BME280;49406;51.044;3.766;2023-07-24T12:16:53;100451.36;;;23.72;73.50
63281;BME280;49406;51.044;3.766;2023-07-24T12:19:35;100448.95;;;23.53;75.81
63281;BME280;49406;51.044;3.766;2023-07-24T12:22:08;100445.40;;;23.31;80.99
63281;BME280;49406;51.044;3.766;2023-07-24T12:24:41;100442.17;;;23.07;81.33
63281;BME280;49406;51.044;3.766;2023-07-24T12:27:16;100444.44;;;22.90;80.96
63281;BME280;49406;51.044;3.766;2023-07-24T12:29:50;100445.91;;;22.96;81.56
63281;BME280;49406;51.044;3.766;2023-07-24T12:32:25;100445.67;;;23.12;78.86
63281;BME280;49406;51.044;3.766;2023-07-24T12:35:00;100447.31;;;23.40;76.10
63281;BME280;49406;51.044;3.766;2023-07-24T12:37:34;100443.02;;;23.50;73.71
63281;BME280;49406;51.044;3.766;2023-07-24T12:40:10;100447.09;;;23.61;74.81
63281;BME280;49406;51.044;3.766;2023-07-24T12:42:44;100450.70;;;23.81;72.43
63281;BME280;49406;51.044;3.766;2023-07-24T12:45:19;100458.37;;;23.95;70.58
63281;BME280;49406;51.044;3.766;2023-07-24T12:47:54;100455.49;;;24.05;68.89
63281;BME280;49406;51.044;3.766;2023-07-24T12:50:29;100460.95;;;24.16;67.89
63281;BME280;49406;51.044;3.766;2023-07-24T12:53:04;100466.19;;;24.22;64.83
63281;BME280;49406;51.044;3.766;2023-07-24T12:55:38;100468.23;;;24.07;70.72
63281;BME280;49406;51.044;3.766;2023-07-24T12:58:12;100472.17;;;23.77;73.48
63281;BME280;49406;51.044;3.766;2023-07-24T13:00:47;100476.20;;;23.29;73.70
63281;BME280;49406;51.044;3.766;2023-07-24T13:03:21;100479.49;;;22.91;75.99
63281;BME280;49406;51.044;3.766;2023-07-24T13:05:56;100488.27;;;22.33;78.70
63281;BME280;49406;51.044;3.766;2023-07-24T13:08:30;100489.05;;;21.80;81.24
63281;BME280;49406;51.044;3.766;2023-07-24T13:11:05;100494.54;;;21.39;83.35
63281;BME280;49406;51.044;3.766;2023-07-24T13:13:39;100496.70;;;21.08;85.93
63281;BME280;49406;51.044;3.766;2023-07-24T13:16:14;100503.16;;;20.66;89.40
63281;BME280;49406;51.044;3.766;2023-07-24T13:18:48;100509.73;;;20.18;92.38
63281;BME280;49406;51.044;3.766;2023-07-24T13:21:23;100521.35;;;19.81;93.95
63281;BME280;49406;51.044;3.766;2023-07-24T13:23:57;100516.13;;;19.47;98.54
63281;BME280;49406;51.044;3.766;2023-07-24T13:26:31;100512.98;;;19.18;100.00
63281;BME280;49406;51.044;3.766;2023-07-24T13:29:06;100513.76;;;18.77;100.00
63281;BME280;49406;51.044;3.766;2023-07-24T13:31:40;100501.59;;;18.39;100.00
63281;BME280;49406;51.044;3.766;2023-07-24T13:34:15;100507.41;;;17.96;100.00
63281;BME280;49406;51.044;3.766;2023-07-24T13:36:52;100510.59;;;17.63;100.00
63281;BME280;49406;51.044;3.766;2023-07-24T13:39:27;100509.86;;;17.42;100.00